Hlavní strana
METAR-TAF:

METAR-TAF

Letiště :

Kake, Aljaška, Spojené státy americké

zeměpisná šířka: 56-57N, zeměpisná délka: 133-54W, výška: 52 m

Aktuální stav počasí

Zpráva byla vytvořena před 53 minutami, v 04:56 UTC
Východní vítr 4 kt
Teplota 6°C
Vlhkost vzduchu 93%
Tlak 1002 hPa
Viditelnost: 16.1 km
Skoro jasno ve výšce 700 ft
Polojasno ve výšce 4900 ft

METAR: PAFE 210456Z AUTO 09004KT 10SM FEW007 SCT049 06/05 A2958 RMK AO2 SLP029 T00560050

Čas: 20:49 (05:49 UTC)


TAF: chybějící

Stav a předpovědi počasí z více než 4 000 letišť (zprávy METAR a TAF).

Červené a žluté tečky na mapě představují dostupné meteorologické stanice.

Když kurzor umístíte na tečku, zobrazí se název stanice.

Pak kliknutím zobrazíte stav a předpověď počasí.

Chcete-li změnit mapu, kliknutím na zelené tlačítko se znaménkem +mapu přiblížíte, kliknutím na zelené tlačítko se znaménkem – mapu oddálíte a kliknutím na zelené šipky přejdete na sousední mapy.


METAR-TAF: